Time;durP1;ratioP1;P1;durP2;ratioP2;P2;SDS_P1;SDS_P2;PMS_P1;PMS_P2;Temp;Humidity;BMP_temperature;BMP_pressure;BME280_temperature;BME280_humidity;BME280_pressure;Samples;Min_cycle;Max_cycle;Signal;HPM_P1;HPM_P2
2022/12/22 03:27:16;;;;;;;11.32;4.10;;;;;;;;;;6163178;23;20048;-59
2022/12/22 03:29:44;;;;;;;17.03;4.63;;;;;;;;;;6149949;23;20010;-59
2022/12/22 03:32:12;;;;;;;14.95;4.65;;;;;;;;;;6155621;23;20032;-59
2022/12/22 03:34:41;;;;;;;11.63;4.30;;;;;;;;;;6159329;23;20025;-59
2022/12/22 03:37:09;;;;;;;14.07;5.15;;;;;;;;;;6151900;23;20037;-59
2022/12/22 03:39:36;;;;;;;16.50;4.40;;;;;;;;;;6161907;23;20013;-60
2022/12/22 03:47:36;;;;;;;13.85;4.53;;;;;;;;;;6156401;23;20013;-58
2022/12/22 03:50:06;;;;;;;15.13;4.13;;;;;;;;;;6155714;23;20172;-58
2022/12/22 03:52:34;;;;;;;21.88;5.80;;;;;;;;;;6158816;23;20217;-58
2022/12/22 03:55:01;;;;;;;21.07;5.73;;;;;;;;;;6149204;23;20045;-58
2022/12/22 03:57:32;;;;;;;19.63;5.85;;;;;;;;;;6151362;23;20016;-59
2022/12/22 03:59:59;;;;;;;31.25;4.65;;;;;;;;;;6159327;23;20017;-58
2022/12/22 04:02:27;;;;;;;33.20;4.93;;;;;;;;;;6149864;23;20048;-58
2022/12/22 04:04:55;;;;;;;30.10;4.47;;;;;;;;;;6160811;23;20071;-58
2022/12/22 04:07:24;;;;;;;20.60;4.00;;;;;;;;;;6150430;23;20616;-58
2022/12/22 04:12:55;;;;;;;15.38;3.50;;;;;;;;;;6130915;23;20021;-58
2022/12/22 04:15:23;;;;;;;18.10;3.55;;;;;;;;;;6151508;23;20095;-58
2022/12/22 04:17:51;;;;;;;15.32;3.80;;;;;;;;;;6154971;23;20511;-58
2022/12/22 04:20:20;;;;;;;14.93;3.70;;;;;;;;;;6154998;23;20570;-59
2022/12/22 04:22:49;;;;;;;11.85;4.15;;;;;;;;;;6156847;23;20088;-58
2022/12/22 04:25:16;;;;;;;13.35;3.58;;;;;;;;;;6151601;23;20047;-59
2022/12/22 04:27:44;;;;;;;15.88;3.70;;;;;;;;;;6153596;23;20101;-58
2022/12/22 04:30:12;;;;;;;17.25;4.00;;;;;;;;;;6149282;23;20349;-58
2022/12/22 04:32:39;;;;;;;14.30;4.23;;;;;;;;;;6162098;23;20024;-58
2022/12/22 04:35:07;;;;;;;15.00;4.25;;;;;;;;;;6140768;23;20865;-58
2022/12/22 04:37:35;;;;;;;12.48;4.22;;;;;;;;;;6156329;23;20041;-58
2022/12/22 04:40:05;;;;;;;16.65;4.65;;;;;;;;;;6143111;23;20293;-58
2022/12/22 04:42:32;;;;;;;13.25;3.88;;;;;;;;;;6157640;23;20128;-59
2022/12/22 04:45:00;;;;;;;17.30;4.60;;;;;;;;;;6153158;23;20017;-58
2022/12/22 04:47:28;;;;;;;11.55;3.75;;;;;;;;;;6150122;23;20480;-59
2022/12/22 04:49:55;;;;;;;16.52;3.95;;;;;;;;;;6155527;23;20043;-58
2022/12/22 04:52:23;;;;;;;13.65;3.08;;;;;;;;;;6146082;23;20052;-58
2022/12/22 04:54:51;;;;;;;14.27;3.22;;;;;;;;;;6159616;23;20041;-58
2022/12/22 04:57:20;;;;;;;9.20;3.60;;;;;;;;;;6146231;23;20013;-59
2022/12/22 04:59:48;;;;;;;12.18;3.65;;;;;;;;;;6150170;23;20009;-58
2022/12/22 05:02:19;;;;;;;13.73;3.53;;;;;;;;;;6156023;23;20424;-59
2022/12/22 05:04:46;;;;;;;10.02;3.35;;;;;;;;;;6152799;23;20038;-59
2022/12/22 05:07:14;;;;;;;11.95;3.25;;;;;;;;;;6160072;23;20044;-59
2022/12/22 05:09:42;;;;;;;10.60;2.93;;;;;;;;;;6148967;23;20535;-58
2022/12/22 05:14:56;;;;;;;12.43;3.00;;;;;;;;;;6149050;23;20075;-58
2022/12/22 05:17:23;;;;;;;9.10;3.22;;;;;;;;;;6156997;23;20068;-58
2022/12/22 05:19:51;;;;;;;9.50;3.13;;;;;;;;;;6145467;23;20092;-58
2022/12/22 05:22:19;;;;;;;10.40;2.83;;;;;;;;;;6160739;23;20020;-58
2022/12/22 05:24:48;;;;;;;7.72;2.28;;;;;;;;;;6161174;23;20025;-59
2022/12/22 05:27:15;;;;;;;10.45;3.00;;;;;;;;;;6156197;23;20048;-58
2022/12/22 05:29:43;;;;;;;10.40;3.17;;;;;;;;;;6146786;23;20045;-58
2022/12/22 05:32:12;;;;;;;12.82;2.45;;;;;;;;;;6155614;23;20087;-58
2022/12/22 05:34:39;;;;;;;8.63;2.67;;;;;;;;;;6155449;23;20097;-58
2022/12/22 05:37:07;;;;;;;9.50;2.90;;;;;;;;;;6148154;23;20013;-58
2022/12/22 05:39:36;;;;;;;10.45;3.22;;;;;;;;;;6153607;23;20075;-58
2022/12/22 05:42:04;;;;;;;9.85;2.75;;;;;;;;;;6152969;23;20321;-58
2022/12/22 05:44:32;;;;;;;8.55;2.55;;;;;;;;;;6151585;23;20017;-58
2022/12/22 05:46:59;;;;;;;10.10;1.93;;;;;;;;;;6157153;23;20021;-58
2022/12/22 05:49:29;;;;;;;9.75;2.28;;;;;;;;;;6147041;23;20021;-58
2022/12/22 05:51:56;;;;;;;6.30;1.75;;;;;;;;;;6158769;23;20095;-58
2022/12/22 05:54:24;;;;;;;8.00;2.25;;;;;;;;;;6153376;23;20477;-58
2022/12/22 05:56:52;;;;;;;8.43;2.35;;;;;;;;;;6155327;23;20017;-58
2022/12/22 05:59:20;;;;;;;6.20;1.80;;;;;;;;;;6144716;23;20263;-58
2022/12/22 06:01:48;;;;;;;7.25;2.35;;;;;;;;;;6156286;23;20523;-58
2022/12/22 06:04:15;;;;;;;8.60;2.38;;;;;;;;;;6147296;23;20017;-58
2022/12/22 06:06:45;;;;;;;9.18;1.88;;;;;;;;;;6154787;23;20092;-58
2022/12/22 06:09:12;;;;;;;6.95;1.92;;;;;;;;;;6148056;23;20412;-59
2022/12/22 06:11:40;;;;;;;8.43;2.30;;;;;;;;;;6154390;23;20017;-59
2022/12/22 06:14:08;;;;;;;9.20;2.63;;;;;;;;;;6147997;23;20036;-59
2022/12/22 06:16:41;;;;;;;7.78;2.40;;;;;;;;;;6155548;23;20017;-58
2022/12/22 06:19:09;;;;;;;8.98;2.53;;;;;;;;;;6155928;23;20063;-59
2022/12/22 06:21:36;;;;;;;11.63;2.67;;;;;;;;;;6150515;23;20459;-59
2022/12/22 06:24:06;;;;;;;11.27;2.50;;;;;;;;;;6159807;23;20056;-58
2022/12/22 06:26:33;;;;;;;13.60;2.97;;;;;;;;;;6160025;23;20017;-58
2022/12/22 06:29:03;;;;;;;8.02;2.78;;;;;;;;;;6146028;23;20049;-58
2022/12/22 06:31:36;;;;;;;10.10;2.65;;;;;;;;;;6164944;23;20076;-59
2022/12/22 06:34:04;;;;;;;9.35;2.50;;;;;;;;;;6161106;23;20023;-58
2022/12/22 06:36:33;;;;;;;10.87;2.57;;;;;;;;;;6147353;23;20021;-59
2022/12/22 06:39:00;;;;;;;9.10;2.67;;;;;;;;;;6153165;23;20437;-58
2022/12/22 06:44:15;;;;;;;9.45;2.92;;;;;;;;;;6153502;23;20112;-58
2022/12/22 06:46:43;;;;;;;8.63;2.70;;;;;;;;;;6151979;23;20049;-57
2022/12/22 06:49:10;;;;;;;10.60;3.43;;;;;;;;;;6156238;23;20092;-58
2022/12/22 06:51:38;;;;;;;11.05;3.20;;;;;;;;;;6151518;23;20083;-58
2022/12/22 06:54:06;;;;;;;10.65;3.08;;;;;;;;;;6157163;23;20013;-58
2022/12/22 06:56:40;;;;;;;10.35;3.17;;;;;;;;;;6157577;23;20368;-59
2022/12/22 06:59:07;;;;;;;10.90;2.78;;;;;;;;;;6153231;23;20044;-58
2022/12/22 07:01:35;;;;;;;11.53;3.50;;;;;;;;;;6153641;23;20092;-59
2022/12/22 07:04:03;;;;;;;11.38;3.08;;;;;;;;;;6145863;23;20017;-59
2022/12/22 07:06:31;;;;;;;14.43;3.50;;;;;;;;;;6159068;23;20021;-58
2022/12/22 07:08:58;;;;;;;12.23;3.60;;;;;;;;;;6151437;23;20408;-59
2022/12/22 07:11:26;;;;;;;10.68;3.58;;;;;;;;;;6159361;23;20020;-58
2022/12/22 07:13:55;;;;;;;13.40;3.60;;;;;;;;;;6144050;23;20013;-59
2022/12/22 07:16:23;;;;;;;10.77;3.15;;;;;;;;;;6158206;23;20071;-58
2022/12/22 07:18:50;;;;;;;11.48;2.70;;;;;;;;;;6148121;23;20016;-59
2022/12/22 07:21:18;;;;;;;11.75;2.80;;;;;;;;;;6151919;23;20017;-59
2022/12/22 07:23:46;;;;;;;12.05;2.63;;;;;;;;;;6157968;23;20021;-58
2022/12/22 07:26:14;;;;;;;11.33;3.50;;;;;;;;;;6154204;23;20021;-59
2022/12/22 07:28:42;;;;;;;9.85;2.30;;;;;;;;;;6161140;23;20428;-58
2022/12/22 07:31:11;;;;;;;10.30;2.80;;;;;;;;;;6147485;23;20024;-58
2022/12/22 07:33:39;;;;;;;13.20;3.42;;;;;;;;;;6145914;23;20023;-59
2022/12/22 07:36:08;;;;;;;10.23;3.00;;;;;;;;;;6160973;23;20013;-58
2022/12/22 07:38:36;;;;;;;10.83;3.03;;;;;;;;;;6148723;23;20032;-59
2022/12/22 07:42:43;;;;;;;12.38;3.08;;;;;;;;;;6152813;23;20140;-59
2022/12/22 07:43:51;;;;;;;9.30;3.00;;;;;;;;;;6161420;23;20013;-59
2022/12/22 07:46:20;;;;;;;8.68;3.10;;;;;;;;;;6143572;23;20458;-59
2022/12/22 07:51:33;;;;;;;9.43;3.00;;;;;;;;;;6148057;23;20040;-59
2022/12/22 07:54:01;;;;;;;9.15;2.25;;;;;;;;;;6156964;23;20419;-59
2022/12/22 07:56:28;;;;;;;10.02;3.13;;;;;;;;;;6152449;23;20037;-59
2022/12/22 07:58:58;;;;;;;9.75;3.08;;;;;;;;;;6157850;23;20020;-59
2022/12/22 08:01:30;;;;;;;9.05;2.63;;;;;;;;;;6158980;23;20021;-59
2022/12/22 08:03:58;;;;;;;9.80;2.63;;;;;;;;;;6150775;23;20028;-59
2022/12/22 08:06:26;;;;;;;7.78;1.75;;;;;;;;;;6159983;23;20101;-58
2022/12/22 08:08:53;;;;;;;7.07;1.35;;;;;;;;;;6146040;23;20048;-59
2022/12/22 08:11:21;;;;;;;5.50;1.35;;;;;;;;;;6154009;23;20017;-58
2022/12/22 08:13:48;;;;;;;5.63;1.40;;;;;;;;;;6152483;23;20513;-59
2022/12/22 08:16:21;;;;;;;6.60;1.50;;;;;;;;;;6157818;23;20088;-59
2022/12/22 08:18:50;;;;;;;7.20;1.73;;;;;;;;;;6144398;23;20021;-59
2022/12/22 08:21:17;;;;;;;7.20;1.90;;;;;;;;;;6153758;23;20044;-59
2022/12/22 08:23:45;;;;;;;7.88;2.10;;;;;;;;;;6156663;23;20056;-59
2022/12/22 08:26:15;;;;;;;7.38;1.70;;;;;;;;;;6157231;23;20380;-59
2022/12/22 08:28:44;;;;;;;11.00;2.40;;;;;;;;;;6155677;23;20667;-58
2022/12/22 08:31:12;;;;;;;8.65;1.75;;;;;;;;;;6150703;23;20051;-59
2022/12/22 08:33:40;;;;;;;11.00;2.13;;;;;;;;;;6147872;23;20021;-59
2022/12/22 08:36:09;;;;;;;8.43;2.42;;;;;;;;;;6159403;23;20041;-59
2022/12/22 08:38:38;;;;;;;10.10;2.25;;;;;;;;;;6141526;23;20032;-59
2022/12/22 08:41:07;;;;;;;9.67;2.53;;;;;;;;;;6163206;23;20041;-59
2022/12/22 08:43:35;;;;;;;11.88;3.03;;;;;;;;;;6146087;23;20020;-59
2022/12/22 08:46:05;;;;;;;11.27;2.78;;;;;;;;;;6154962;23;20017;-59
2022/12/22 08:48:33;;;;;;;9.32;2.45;;;;;;;;;;6159832;23;20589;-59
2022/12/22 08:51:01;;;;;;;12.52;3.05;;;;;;;;;;6147206;23;20040;-59
2022/12/22 08:53:30;;;;;;;10.80;2.90;;;;;;;;;;6157763;23;20344;-59
2022/12/22 08:56:18;;;;;;;10.10;2.25;;;;;;;;;;6150543;23;20017;-59
2022/12/22 08:58:45;;;;;;;9.45;2.28;;;;;;;;;;6158095;23;20013;-58
2022/12/22 09:01:15;;;;;;;11.30;3.00;;;;;;;;;;6149851;23;20108;-59
2022/12/22 09:03:47;;;;;;;12.45;2.78;;;;;;;;;;6157651;23;20036;-59
2022/12/22 09:06:15;;;;;;;9.77;2.87;;;;;;;;;;6153554;23;20128;-59
2022/12/22 09:08:44;;;;;;;11.15;2.40;;;;;;;;;;6153145;23;20083;-58
2022/12/22 09:11:12;;;;;;;11.10;2.08;;;;;;;;;;6152831;23;20013;-59
2022/12/22 09:13:39;;;;;;;17.33;2.58;;;;;;;;;;6150752;23;20467;-59
2022/12/22 09:16:10;;;;;;;9.85;2.03;;;;;;;;;;6152850;23;20021;-59
2022/12/22 09:18:38;;;;;;;15.10;2.13;;;;;;;;;;6151869;23;20017;-59
2022/12/22 09:21:05;;;;;;;11.77;1.90;;;;;;;;;;6156082;23;20044;-59
2022/12/22 09:23:33;;;;;;;10.27;1.55;;;;;;;;;;6154279;23;20401;-59
2022/12/22 09:26:07;;;;;;;13.48;1.90;;;;;;;;;;6147802;23;20482;-59
2022/12/22 09:28:35;;;;;;;9.07;1.35;;;;;;;;;;6156333;23;20048;-59
2022/12/22 09:31:03;;;;;;;9.17;0.83;;;;;;;;;;6152315;23;20060;-58
2022/12/22 09:33:31;;;;;;;9.75;1.00;;;;;;;;;;6158875;23;20077;-59
2022/12/22 09:35:59;;;;;;;8.48;1.48;;;;;;;;;;6152250;23;20060;-59
2022/12/22 09:38:28;;;;;;;5.60;1.10;;;;;;;;;;6153656;23;20666;-59
2022/12/22 09:40:56;;;;;;;5.25;1.10;;;;;;;;;;6158357;23;20048;-59
2022/12/22 09:43:28;;;;;;;8.63;0.97;;;;;;;;;;6151328;23;20020;-59
2022/12/22 09:45:56;;;;;;;8.63;1.10;;;;;;;;;;6162747;23;20028;-59
2022/12/22 09:48:25;;;;;;;5.68;0.80;;;;;;;;;;6146031;23;20096;-59
2022/12/22 09:50:53;;;;;;;5.70;1.02;;;;;;;;;;6145797;23;20079;-59
2022/12/22 09:53:22;;;;;;;10.20;1.20;;;;;;;;;;6152758;23;20571;-59
2022/12/22 09:55:50;;;;;;;8.07;1.40;;;;;;;;;;6154963;23;20020;-59
2022/12/22 09:58:20;;;;;;;7.25;1.40;;;;;;;;;;6153392;23;20075;-59
2022/12/22 10:00:58;;;;;;;7.53;1.27;;;;;;;;;;6156255;23;20029;-59
2022/12/22 10:03:30;;;;;;;6.72;1.30;;;;;;;;;;6154032;23;20482;-59
2022/12/22 10:06:03;;;;;;;9.38;1.58;;;;;;;;;;6152750;23;20072;-59
2022/12/22 10:08:32;;;;;;;7.07;1.53;;;;;;;;;;6154862;23;20017;-59
2022/12/22 10:11:00;;;;;;;10.32;1.75;;;;;;;;;;6149959;23;20448;-59
2022/12/22 10:13:27;;;;;;;14.40;1.58;;;;;;;;;;6156897;23;20021;-59
2022/12/22 10:15:56;;;;;;;10.70;1.60;;;;;;;;;;6156105;23;20017;-59
2022/12/22 10:18:25;;;;;;;12.70;2.00;;;;;;;;;;6156997;23;20535;-59
2022/12/22 10:21:07;;;;;;;11.50;1.60;;;;;;;;;;6159554;23;20035;-59
2022/12/22 10:23:37;;;;;;;15.07;2.00;;;;;;;;;;6158149;23;20492;-60
2022/12/22 10:26:07;;;;;;;12.77;2.10;;;;;;;;;;6149788;23;20349;-59
2022/12/22 10:28:59;;;;;;;11.07;1.92;;;;;;;;;;6156101;23;20036;-59
2022/12/22 10:31:29;;;;;;;18.52;3.28;;;;;;;;;;6158850;23;20549;-59
2022/12/22 10:34:10;;;;;;;19.40;3.13;;;;;;;;;;6141614;23;20218;-60
2022/12/22 10:36:39;;;;;;;25.92;3.25;;;;;;;;;;6144187;23;20091;-60
2022/12/22 10:39:08;;;;;;;24.73;2.92;;;;;;;;;;6146701;23;20024;-59
2022/12/22 10:41:37;;;;;;;23.08;2.80;;;;;;;;;;6145507;23;20036;-60
2022/12/22 10:44:08;;;;;;;29.83;2.75;;;;;;;;;;6148406;23;20013;-60
2022/12/22 10:46:40;;;;;;;22.37;2.43;;;;;;;;;;6144963;23;20017;-60
2022/12/22 10:49:10;;;;;;;19.73;2.47;;;;;;;;;;6150627;23;20021;-59
2022/12/22 10:51:40;;;;;;;22.52;2.20;;;;;;;;;;6142345;23;20024;-60
2022/12/22 10:54:09;;;;;;;32.03;2.65;;;;;;;;;;6144762;23;20024;-59
2022/12/22 10:56:38;;;;;;;23.63;2.92;;;;;;;;;;6145690;23;20064;-60
2022/12/22 10:59:15;;;;;;;26.60;2.47;;;;;;;;;;6147680;23;20448;-60
2022/12/22 11:01:49;;;;;;;28.00;2.25;;;;;;;;;;6129883;23;20059;-59
2022/12/22 11:04:18;;;;;;;20.02;2.30;;;;;;;;;;6155445;23;20021;-60
2022/12/22 11:06:47;;;;;;;27.13;2.50;;;;;;;;;;6156518;23;20079;-59
2022/12/22 11:09:14;;;;;;;24.60;2.28;;;;;;;;;;6151771;23;20048;-60
2022/12/22 11:12:05;;;;;;;23.73;2.37;;;;;;;;;;6147990;23;20271;-60
2022/12/22 11:14:35;;;;;;;21.00;2.42;;;;;;;;;;6157681;23;20344;-60
2022/12/22 11:17:10;;;;;;;20.23;2.17;;;;;;;;;;6145501;23;20079;-59
2022/12/22 11:20:03;;;;;;;20.17;1.92;;;;;;;;;;6150394;23;20017;-60
2022/12/22 11:22:34;;;;;;;30.38;2.50;;;;;;;;;;6157744;23;20300;-60
2022/12/22 11:25:19;;;;;;;24.83;2.50;;;;;;;;;;6147892;23;20071;-59
2022/12/22 11:27:53;;;;;;;23.65;2.83;;;;;;;;;;6153239;23;20331;-60
2022/12/22 11:30:23;;;;;;;18.92;2.13;;;;;;;;;;6150060;23;20048;-59
2022/12/22 11:33:15;;;;;;;21.65;2.40;;;;;;;;;;6149191;23;20013;-59
2022/12/22 11:35:51;;;;;;;14.82;1.50;;;;;;;;;;6118581;23;20325;-59
2022/12/22 11:38:22;;;;;;;22.37;2.10;;;;;;;;;;6125420;23;20021;-59
2022/12/22 11:40:53;;;;;;;17.23;2.20;;;;;;;;;;6123033;23;20010;-59
2022/12/22 11:43:23;;;;;;;14.43;1.73;;;;;;;;;;6118440;23;20032;-60
2022/12/22 11:45:59;;;;;;;12.52;1.55;;;;;;;;;;6121130;23;20456;-60
2022/12/22 11:48:36;;;;;;;15.75;1.98;;;;;;;;;;6115466;23;20503;-60
2022/12/22 11:51:08;;;;;;;16.53;1.70;;;;;;;;;;6105742;23;20022;-60
2022/12/22 11:53:55;;;;;;;15.95;1.80;;;;;;;;;;6119083;23;20032;-60
2022/12/22 11:56:24;;;;;;;11.85;1.30;;;;;;;;;;6117600;23;20448;-60
2022/12/22 11:59:02;;;;;;;11.07;1.38;;;;;;;;;;6119176;23;20427;-61
2022/12/22 12:01:56;;;;;;;15.05;1.95;;;;;;;;;;6117733;23;20014;-60
2022/12/22 12:04:37;;;;;;;13.13;1.43;;;;;;;;;;6051841;23;20027;-61
2022/12/22 12:07:26;;;;;;;11.45;1.35;;;;;;;;;;6125298;23;20276;-60
2022/12/22 12:10:02;;;;;;;12.80;1.65;;;;;;;;;;6113107;23;20108;-61
2022/12/22 12:12:37;;;;;;;6.72;0.95;;;;;;;;;;6125833;23;20018;-61
2022/12/22 12:15:11;;;;;;;13.50;1.52;;;;;;;;;;6112817;23;20014;-61
2022/12/22 12:17:47;;;;;;;13.70;1.73;;;;;;;;;;6126731;23;20021;-61
2022/12/22 12:20:29;;;;;;;7.65;1.33;;;;;;;;;;6126726;23;20021;-61
2022/12/22 12:23:02;;;;;;;12.95;1.65;;;;;;;;;;6107072;23;20500;-61
2022/12/22 12:25:33;;;;;;;11.95;1.50;;;;;;;;;;6124149;23;20041;-61
2022/12/22 12:28:15;;;;;;;10.82;1.20;;;;;;;;;;6124326;23;20211;-57
2022/12/22 12:30:50;;;;;;;8.10;1.60;;;;;;;;;;6117527;23;20022;-61
2022/12/22 12:33:20;;;;;;;6.57;1.13;;;;;;;;;;6117932;23;20049;-61
2022/12/22 12:35:53;;;;;;;10.80;1.42;;;;;;;;;;6128828;23;20017;-61
2022/12/22 12:38:25;;;;;;;10.35;1.60;;;;;;;;;;6117061;23;20210;-61
2022/12/22 12:41:20;;;;;;;8.75;0.93;;;;;;;;;;6125852;23;20032;-61
2022/12/22 12:43:48;;;;;;;9.30;1.60;;;;;;;;;;6128259;23;20021;-61
2022/12/22 12:46:34;;;;;;;10.00;1.35;;;;;;;;;;6117061;23;20064;-61
2022/12/22 12:49:02;;;;;;;7.25;1.23;;;;;;;;;;6128941;23;20041;-61
2022/12/22 12:51:45;;;;;;;7.25;0.98;;;;;;;;;;6122650;23;20037;-61
2022/12/22 12:54:33;;;;;;;8.45;1.65;;;;;;;;;;6113307;23;20061;-61
2022/12/22 12:57:09;;;;;;;7.83;1.00;;;;;;;;;;6127634;23;20037;-61
2022/12/22 12:59:46;;;;;;;8.30;1.38;;;;;;;;;;6116626;23;20018;-61
2022/12/22 13:02:34;;;;;;;9.20;1.33;;;;;;;;;;6121091;23;20064;-61
2022/12/22 13:05:11;;;;;;;10.60;1.10;;;;;;;;;;6127840;23;20525;-61
2022/12/22 13:07:57;;;;;;;7.53;1.40;;;;;;;;;;6117078;23;20022;-61
2022/12/22 13:10:25;;;;;;;6.80;1.23;;;;;;;;;;6121569;23;20049;-61
2022/12/22 13:12:56;;;;;;;11.27;1.98;;;;;;;;;;6127926;23;20017;-61
2022/12/22 13:15:29;;;;;;;9.50;1.70;;;;;;;;;;6128365;23;20363;-61
2022/12/22 13:18:01;;;;;;;8.27;1.73;;;;;;;;;;6114831;23;20053;-61
2022/12/22 13:20:30;;;;;;;11.70;1.73;;;;;;;;;;6120305;23;20056;-62
2022/12/22 13:22:59;;;;;;;9.80;1.20;;;;;;;;;;6111962;23;20064;-61
2022/12/22 13:25:32;;;;;;;13.32;2.00;;;;;;;;;;6127011;23;20072;-61
2022/12/22 13:28:03;;;;;;;7.18;1.48;;;;;;;;;;6124397;23;20021;-61
2022/12/22 13:30:31;;;;;;;11.48;1.60;;;;;;;;;;6123674;23;20060;-61
2022/12/22 13:33:01;;;;;;;11.23;2.38;;;;;;;;;;6127738;23;20110;-62
2022/12/22 13:35:32;;;;;;;7.80;1.80;;;;;;;;;;6121787;23;20018;-61
2022/12/22 13:38:06;;;;;;;11.60;1.75;;;;;;;;;;6115433;23;20472;-61
2022/12/22 13:40:40;;;;;;;10.25;1.85;;;;;;;;;;6118257;23;20055;-61
2022/12/22 13:43:12;;;;;;;7.05;1.98;;;;;;;;;;6116183;23;20094;-61
2022/12/22 13:45:43;;;;;;;8.25;1.85;;;;;;;;;;6126349;23;20036;-57
2022/12/22 13:48:13;;;;;;;11.07;2.20;;;;;;;;;;6114446;23;20736;-61
2022/12/22 13:50:43;;;;;;;7.80;1.52;;;;;;;;;;6130018;23;20063;-62
2022/12/22 13:53:15;;;;;;;9.77;1.63;;;;;;;;;;6118823;23;20014;-61
2022/12/22 13:56:05;;;;;;;7.03;1.40;;;;;;;;;;6127270;23;20018;-61
2022/12/22 13:58:36;;;;;;;7.97;1.30;;;;;;;;;;6127233;23;20114;-61
2022/12/22 14:01:13;;;;;;;9.83;1.90;;;;;;;;;;6116742;23;20024;-61
2022/12/22 14:03:45;;;;;;;7.28;1.30;;;;;;;;;;6107939;23;20244;-57
2022/12/22 14:06:31;;;;;;;8.32;1.10;;;;;;;;;;6119830;23;20018;-61
2022/12/22 14:09:12;;;;;;;12.32;1.70;;;;;;;;;;6117303;23;20025;-62
2022/12/22 14:11:40;;;;;;;6.57;1.15;;;;;;;;;;6126344;23;20126;-61
2022/12/22 14:14:20;;;;;;;5.90;1.00;;;;;;;;;;6124328;23;20032;-61
2022/12/22 14:16:49;;;;;;;7.30;1.50;;;;;;;;;;6109573;23;20643;-61
2022/12/22 14:19:18;;;;;;;5.75;0.75;;;;;;;;;;6106876;23;20022;-62
2022/12/22 14:21:47;;;;;;;4.57;0.90;;;;;;;;;;6122846;23;20478;-62
2022/12/22 14:24:16;;;;;;;5.10;1.20;;;;;;;;;;6120457;23;20432;-62
2022/12/22 14:26:44;;;;;;;4.40;1.00;;;;;;;;;;6121317;23;20500;-61
2022/12/22 14:29:13;;;;;;;7.43;1.17;;;;;;;;;;6112668;23;20017;-62
2022/12/22 14:31:52;;;;;;;8.80;1.17;;;;;;;;;;6117922;23;20037;-61
2022/12/22 14:34:27;;;;;;;6.10;1.35;;;;;;;;;;6120811;23;20101;-60
2022/12/22 14:36:55;;;;;;;6.95;1.23;;;;;;;;;;6109519;23;20024;-62
2022/12/22 14:39:26;;;;;;;7.00;1.23;;;;;;;;;;6128912;23;20296;-61
2022/12/22 14:41:55;;;;;;;5.95;1.10;;;;;;;;;;6119820;23;20018;-62
2022/12/22 14:44:24;;;;;;;6.43;1.30;;;;;;;;;;6109355;23;20105;-61
2022/12/22 14:47:04;;;;;;;7.65;1.60;;;;;;;;;;6123070;23;20491;-61
2022/12/22 14:49:34;;;;;;;6.07;1.60;;;;;;;;;;6106502;23;20025;-62
2022/12/22 14:52:06;;;;;;;10.03;2.07;;;;;;;;;;6106862;23;20401;-61
2022/12/22 14:54:33;;;;;;;8.50;1.35;;;;;;;;;;6114250;23;20056;-61
2022/12/22 14:57:04;;;;;;;7.32;1.67;;;;;;;;;;6115170;23;20017;-61
2022/12/22 14:59:57;;;;;;;8.07;2.03;;;;;;;;;;6116943;23;20024;-60
2022/12/22 15:02:27;;;;;;;11.27;2.05;;;;;;;;;;6116362;23;20024;-61
2022/12/22 15:05:12;;;;;;;9.50;3.13;;;;;;;;;;6120595;23;20021;-61
2022/12/22 15:07:46;;;;;;;8.02;2.85;;;;;;;;;;6114252;23;20409;-61
2022/12/22 15:10:35;;;;;;;8.75;3.00;;;;;;;;;;6112613;23;20021;-62
2022/12/22 15:13:04;;;;;;;7.95;2.40;;;;;;;;;;6126484;23;20110;-61
2022/12/22 15:15:33;;;;;;;6.10;1.65;;;;;;;;;;6123031;23;20045;-62
2022/12/22 15:18:02;;;;;;;9.60;2.20;;;;;;;;;;6119575;23;20060;-62
2022/12/22 15:20:30;;;;;;;8.45;2.28;;;;;;;;;;6127545;23;20310;-61
2022/12/22 15:23:09;;;;;;;7.55;2.20;;;;;;;;;;6112856;23;20100;-62
2022/12/22 15:25:37;;;;;;;9.20;2.15;;;;;;;;;;6124276;23;20487;-62
2022/12/22 15:28:05;;;;;;;8.65;1.70;;;;;;;;;;6113520;23;20060;-62
2022/12/22 15:30:32;;;;;;;7.93;1.60;;;;;;;;;;6124736;23;20018;-62
2022/12/22 15:33:02;;;;;;;8.18;1.30;;;;;;;;;;6126884;23;20097;-62
2022/12/22 15:35:30;;;;;;;5.13;1.08;;;;;;;;;;6120902;23;20021;-61
2022/12/22 15:38:00;;;;;;;6.05;1.38;;;;;;;;;;6093041;23;20021;-60
2022/12/22 15:40:30;;;;;;;5.75;2.10;;;;;;;;;;6121766;23;20032;-60
2022/12/22 15:42:57;;;;;;;5.73;2.17;;;;;;;;;;6114028;23;20022;-62
2022/12/22 15:45:26;;;;;;;9.20;2.63;;;;;;;;;;6120994;23;20018;-62
2022/12/22 15:47:54;;;;;;;7.72;2.47;;;;;;;;;;6105724;23;20074;-60
2022/12/22 15:50:27;;;;;;;8.60;2.05;;;;;;;;;;6119158;23;20022;-61
2022/12/22 15:53:04;;;;;;;7.55;1.88;;;;;;;;;;6112054;23;20017;-62
2022/12/22 15:55:31;;;;;;;7.80;2.17;;;;;;;;;;6120031;23;20358;-62
2022/12/22 15:58:02;;;;;;;6.20;1.80;;;;;;;;;;6111530;23;20021;-60
2022/12/22 16:00:29;;;;;;;7.45;1.65;;;;;;;;;;6115992;23;20096;-62
2022/12/22 16:02:57;;;;;;;4.30;1.08;;;;;;;;;;6120075;23;20706;-60
2022/12/22 16:05:27;;;;;;;6.05;0.93;;;;;;;;;;6109360;23;20036;-62
2022/12/22 16:07:55;;;;;;;4.93;1.20;;;;;;;;;;6111649;23;20044;-63
2022/12/22 16:10:24;;;;;;;6.32;1.23;;;;;;;;;;6122023;23;20021;-62
2022/12/22 16:12:58;;;;;;;5.47;1.60;;;;;;;;;;6120402;23;20076;-62
2022/12/22 16:15:28;;;;;;;5.25;0.90;;;;;;;;;;6113998;23;20024;-62
2022/12/22 16:17:55;;;;;;;6.00;1.33;;;;;;;;;;6109183;23;20392;-62
2022/12/22 16:20:23;;;;;;;4.63;1.03;;;;;;;;;;6114959;23;20064;-62
2022/12/22 16:22:52;;;;;;;4.82;1.38;;;;;;;;;;6106594;23;20100;-62
2022/12/22 16:25:22;;;;;;;4.30;1.23;;;;;;;;;;6118143;23;20048;-61
2022/12/22 16:27:50;;;;;;;4.57;1.52;;;;;;;;;;6115211;23;20203;-61
2022/12/22 16:30:19;;;;;;;5.65;1.65;;;;;;;;;;6114283;23;20263;-62
2022/12/22 16:32:47;;;;;;;6.77;1.63;;;;;;;;;;6114719;23;20076;-62
2022/12/22 16:35:16;;;;;;;5.75;2.08;;;;;;;;;;6115286;23;20092;-61
2022/12/22 16:37:44;;;;;;;7.10;2.70;;;;;;;;;;6110700;23;20013;-62
2022/12/22 16:40:13;;;;;;;7.78;2.55;;;;;;;;;;6096040;23;20053;-62
2022/12/22 16:42:43;;;;;;;6.57;2.33;;;;;;;;;;6125083;23;20028;-62
2022/12/22 16:45:30;;;;;;;11.43;2.40;;;;;;;;;;6098782;23;20052;-62
2022/12/22 16:47:59;;;;;;;6.68;2.38;;;;;;;;;;6094755;23;20052;-61
2022/12/22 16:50:31;;;;;;;8.55;1.90;;;;;;;;;;6117915;23;20137;-61
2022/12/22 16:53:01;;;;;;;7.10;2.33;;;;;;;;;;6111016;23;20018;-61
2022/12/22 16:55:30;;;;;;;9.18;2.45;;;;;;;;;;6092175;23;20049;-62
2022/12/22 16:57:58;;;;;;;8.87;2.30;;;;;;;;;;6115374;23;20048;-62
2022/12/22 17:00:28;;;;;;;6.70;2.20;;;;;;;;;;6115066;23;20018;-62
2022/12/22 17:02:58;;;;;;;8.43;1.98;;;;;;;;;;6118789;23;20101;-62
2022/12/22 17:05:37;;;;;;;6.63;2.42;;;;;;;;;;6119134;23;20021;-61
2022/12/22 17:08:17;;;;;;;6.45;2.17;;;;;;;;;;6114838;23;20420;-61
2022/12/22 17:10:48;;;;;;;8.37;2.37;;;;;;;;;;6116323;23;20100;-62
2022/12/22 17:13:16;;;;;;;8.05;1.92;;;;;;;;;;6110431;23;20048;-61
2022/12/22 17:15:43;;;;;;;7.05;1.88;;;;;;;;;;6105751;23;20330;-61
2022/12/22 17:18:23;;;;;;;9.05;2.03;;;;;;;;;;6118796;23;20056;-62
2022/12/22 17:20:52;;;;;;;5.43;1.80;;;;;;;;;;6124729;23;20080;-62
2022/12/22 17:23:26;;;;;;;7.87;2.20;;;;;;;;;;6117202;23;20540;-61
2022/12/22 17:25:57;;;;;;;8.63;2.50;;;;;;;;;;6123466;23;20394;-61
2022/12/22 17:28:25;;;;;;;7.65;2.10;;;;;;;;;;6125958;23;20045;-61
2022/12/22 17:30:53;;;;;;;10.38;2.60;;;;;;;;;;6123889;23;20036;-62
2022/12/22 17:33:21;;;;;;;8.07;2.40;;;;;;;;;;6117242;23;20017;-61
2022/12/22 17:35:49;;;;;;;8.03;2.50;;;;;;;;;;6128257;23;20028;-61
2022/12/22 17:38:19;;;;;;;11.32;2.70;;;;;;;;;;6108931;23;20272;-62
2022/12/22 17:40:47;;;;;;;8.13;2.50;;;;;;;;;;6126724;23;20271;-61
2022/12/22 17:43:18;;;;;;;8.05;2.38;;;;;;;;;;6110483;23;20322;-62
2022/12/22 17:45:47;;;;;;;8.50;2.65;;;;;;;;;;6118466;23;20041;-62
2022/12/22 17:48:16;;;;;;;6.63;2.03;;;;;;;;;;6109961;23;20028;-62
2022/12/22 17:50:46;;;;;;;6.47;2.42;;;;;;;;;;6116566;23;20084;-62
2022/12/22 17:53:14;;;;;;;10.07;2.20;;;;;;;;;;6116677;23;20539;-62
2022/12/22 17:55:45;;;;;;;9.48;3.17;;;;;;;;;;6122537;23;20086;-61
2022/12/22 17:58:35;;;;;;;7.43;2.63;;;;;;;;;;6120189;23;20014;-62
2022/12/22 18:01:03;;;;;;;9.27;2.53;;;;;;;;;;6105318;23;20454;-62
2022/12/22 18:03:30;;;;;;;7.90;3.33;;;;;;;;;;6123703;23;20104;-61
2022/12/22 18:05:58;;;;;;;7.70;2.90;;;;;;;;;;6114142;23;20028;-62
2022/12/22 18:08:27;;;;;;;10.38;3.70;;;;;;;;;;6123457;23;20018;-62
2022/12/22 18:10:54;;;;;;;8.27;3.10;;;;;;;;;;6118097;23;20052;-62
2022/12/22 18:13:23;;;;;;;10.77;3.00;;;;;;;;;;6124073;23;20022;-61
2022/12/22 18:15:54;;;;;;;9.13;2.38;;;;;;;;;;6112806;23;20408;-62
2022/12/22 18:18:22;;;;;;;10.27;2.72;;;;;;;;;;6115091;23;20025;-61
2022/12/22 18:20:50;;;;;;;8.68;3.00;;;;;;;;;;6121701;23;20014;-62
2022/12/22 18:23:34;;;;;;;7.53;2.35;;;;;;;;;;6118618;23;20084;-62
2022/12/22 18:26:03;;;;;;;7.80;3.07;;;;;;;;;;6117618;23;20088;-60
2022/12/22 18:28:31;;;;;;;9.30;3.45;;;;;;;;;;6128873;23;20049;-62
2022/12/22 18:31:00;;;;;;;7.47;2.55;;;;;;;;;;6122251;23;20013;-62
2022/12/22 18:33:28;;;;;;;7.65;2.60;;;;;;;;;;6117221;23;20505;-62
2022/12/22 18:35:57;;;;;;;8.93;2.60;;;;;;;;;;6126904;23;20025;-62
2022/12/22 18:38:25;;;;;;;7.87;2.13;;;;;;;;;;6114005;23;20069;-61
2022/12/22 18:40:53;;;;;;;6.82;2.15;;;;;;;;;;6122763;23;20089;-62